createdAt,value
2022-09-20T00:02:48.350Z,11.36
2022-09-20T00:05:51.194Z,11.39
2022-09-20T00:08:54.764Z,11.46
2022-09-20T00:11:59.564Z,11.32
2022-09-20T00:15:04.769Z,11.44
2022-09-20T00:18:07.476Z,11.47
2022-09-20T00:21:16.912Z,11.42
2022-09-20T00:24:20.322Z,11.43
2022-09-20T00:27:24.384Z,11.44
2022-09-20T00:30:27.250Z,11.37
2022-09-20T00:33:50.250Z,11.47
2022-09-20T00:36:52.112Z,11.51
2022-09-20T00:39:54.972Z,11.30
2022-09-20T00:42:59.044Z,11.22
2022-09-20T00:46:03.960Z,11.08
2022-09-20T00:49:13.001Z,11.14
2022-09-20T00:52:17.109Z,11.19
2022-09-20T00:55:21.423Z,11.18
2022-09-20T00:58:28.613Z,11.17
2022-09-20T01:01:31.986Z,11.13
2022-09-20T01:04:39.088Z,11.30
2022-09-20T01:07:43.762Z,11.43
2022-09-20T01:10:47.291Z,11.27
2022-09-20T01:13:54.454Z,11.14
2022-09-20T01:17:03.668Z,11.20
2022-09-20T01:20:16.788Z,11.34
2022-09-20T01:23:45.353Z,11.25
2022-09-20T01:27:07.857Z,11.22
2022-09-20T01:30:17.300Z,11.08
2022-09-20T01:33:29.607Z,11.06
2022-09-20T01:36:38.989Z,11.16
2022-09-20T01:39:53.761Z,11.07
2022-09-20T01:43:04.268Z,11.17
2022-09-20T01:46:21.432Z,11.30
2022-09-20T01:49:31.752Z,11.35
2022-09-20T01:53:08.942Z,11.39
2022-09-20T01:56:42.255Z,11.41
2022-09-20T02:00:08.141Z,11.33
2022-09-20T02:03:37.205Z,11.18
2022-09-20T02:07:08.805Z,11.23
2022-09-20T02:10:33.013Z,11.27
2022-09-20T02:13:54.990Z,11.27
2022-09-20T02:17:04.501Z,11.31
2022-09-20T02:20:21.153Z,11.26
2022-09-20T02:23:41.964Z,11.25
2022-09-20T02:26:58.525Z,11.17
2022-09-20T02:30:25.135Z,11.03
2022-09-20T02:33:52.639Z,10.89
2022-09-20T02:37:16.607Z,11.06
2022-09-20T02:40:31.417Z,10.89
2022-09-20T02:43:41.955Z,11.06
2022-09-20T02:46:54.047Z,10.90
2022-09-20T02:50:12.715Z,11.09
2022-09-20T02:53:38.178Z,11.06
2022-09-20T02:56:48.835Z,10.94
2022-09-20T02:59:57.950Z,10.99
2022-09-20T03:03:10.068Z,11.06
2022-09-20T03:06:22.532Z,10.88
2022-09-20T03:09:36.042Z,10.87
2022-09-20T03:12:56.351Z,10.86
2022-09-20T03:16:06.533Z,10.89
2022-09-20T03:19:23.325Z,10.85
2022-09-20T03:22:37.157Z,10.98
2022-09-20T03:25:56.044Z,10.92
2022-09-20T03:29:04.011Z,10.96
2022-09-20T03:32:23.723Z,11.14
2022-09-20T03:35:42.439Z,11.19
2022-09-20T03:39:12.159Z,11.26
2022-09-20T03:42:20.844Z,11.14
2022-09-20T03:45:59.550Z,11.09
2022-09-20T03:49:47.637Z,11.16
2022-09-20T03:53:08.069Z,11.11
2022-09-20T03:56:27.033Z,11.26
2022-09-20T03:59:54.177Z,11.38
2022-09-20T04:03:04.807Z,11.22
2022-09-20T04:06:49.047Z,11.35
2022-09-20T04:10:17.366Z,11.16
2022-09-20T04:13:35.677Z,10.89
2022-09-20T04:16:47.349Z,10.69
2022-09-20T04:19:54.901Z,10.57
2022-09-20T04:23:02.533Z,10.48
2022-09-20T04:26:05.675Z,10.45
2022-09-20T04:29:29.051Z,10.42
2022-09-20T04:32:41.258Z,10.41
2022-09-20T04:36:06.765Z,10.25
2022-09-20T04:39:18.971Z,10.30
2022-09-20T04:42:51.978Z,10.17
2022-09-20T04:46:22.825Z,10.14
2022-09-20T04:49:57.914Z,10.10
2022-09-20T04:53:30.951Z,10.12
2022-09-20T04:56:52.205Z,10.07
2022-09-20T05:00:05.794Z,10.04
2022-09-20T05:03:33.104Z,9.96
2022-09-20T05:07:01.723Z,10.04
2022-09-20T05:10:27.154Z,10.03
2022-09-20T05:13:43.283Z,10.01
2022-09-20T05:17:02.789Z,10.01
2022-09-20T05:20:27.798Z,10.01
2022-09-20T05:23:58.283Z,9.90
2022-09-20T05:27:19.744Z,10.08
2022-09-20T05:30:35.190Z,10.21
2022-09-20T05:33:49.092Z,10.25
2022-09-20T05:37:00.717Z,10.25
2022-09-20T05:40:16.585Z,10.22
2022-09-20T05:43:28.867Z,10.22
2022-09-20T05:46:37.762Z,10.28
2022-09-20T05:49:53.070Z,10.31
2022-09-20T05:53:00.515Z,10.26
2022-09-20T05:56:15.773Z,10.28
2022-09-20T05:59:31.964Z,10.31
2022-09-20T06:02:49.206Z,10.34
2022-09-20T06:05:59.468Z,10.38
2022-09-20T06:09:19.853Z,10.41
2022-09-20T06:13:19.925Z,10.45
2022-09-20T06:16:33.731Z,10.43
2022-09-20T06:19:42.452Z,10.40
2022-09-20T06:22:47.599Z,10.47
2022-09-20T06:25:57.442Z,10.56
2022-09-20T06:29:04.400Z,10.53
2022-09-20T06:32:08.299Z,10.47
2022-09-20T06:35:11.291Z,10.35
2022-09-20T06:38:51.252Z,10.58
2022-09-20T06:41:54.727Z,10.70
2022-09-20T06:44:59.103Z,10.72
2022-09-20T06:48:03.411Z,10.64
2022-09-20T06:51:06.301Z,10.50
2022-09-20T06:54:15.435Z,10.67
2022-09-20T06:57:21.250Z,11.20
2022-09-20T07:00:24.353Z,11.35
2022-09-20T07:03:28.437Z,11.82
2022-09-20T07:06:31.055Z,11.87
2022-09-20T07:09:33.680Z,11.55
2022-09-20T07:12:36.569Z,12.12
2022-09-20T07:15:39.338Z,12.83
2022-09-20T07:18:44.635Z,13.20
2022-09-20T07:21:47.352Z,13.61
2022-09-20T07:24:50.087Z,13.96
2022-09-20T07:27:52.732Z,14.46
2022-09-20T07:30:55.327Z,14.64
2022-09-20T07:33:59.352Z,14.81
2022-09-20T07:37:02.389Z,15.03
2022-09-20T07:40:06.497Z,15.37
2022-09-20T07:43:09.235Z,15.81
2022-09-20T07:46:13.664Z,16.22
2022-09-20T07:49:17.871Z,16.40
2022-09-20T07:52:20.518Z,16.72
2022-09-20T07:55:23.234Z,16.23
2022-09-20T07:58:26.361Z,16.62
2022-09-20T08:01:29.496Z,17.03
2022-09-20T08:04:33.576Z,17.02
2022-09-20T08:07:36.204Z,16.93
2022-09-20T08:10:41.408Z,16.89
2022-09-20T08:17:12.414Z,16.91
2022-09-20T08:20:16.938Z,16.83
2022-09-20T08:23:23.685Z,16.30
2022-09-20T08:26:30.418Z,16.37
2022-09-20T08:29:33.166Z,16.21
2022-09-20T08:32:35.719Z,16.05
2022-09-20T08:35:39.681Z,16.19
2022-09-20T08:42:14.413Z,16.20
2022-09-20T08:45:33.703Z,16.22
2022-09-20T08:48:37.367Z,15.85
2022-09-20T08:51:48.508Z,15.99
2022-09-20T08:54:51.386Z,15.49
2022-09-20T08:57:56.639Z,15.58
2022-09-20T09:01:00.172Z,15.93
2022-09-20T09:04:13.817Z,15.99
2022-09-20T09:07:21.711Z,15.73
2022-09-20T09:10:24.333Z,15.96
2022-09-20T09:13:33.398Z,15.97
2022-09-20T09:16:36.428Z,15.94
2022-09-20T09:19:48.249Z,16.29
2022-09-20T09:23:02.723Z,16.40
2022-09-20T09:26:06.708Z,16.16
2022-09-20T09:29:15.911Z,16.52
2022-09-20T09:32:24.055Z,16.68
2022-09-20T09:35:30.630Z,16.54
2022-09-20T09:38:37.612Z,16.71
2022-09-20T09:41:40.646Z,17.42
2022-09-20T09:44:43.357Z,17.72
2022-09-20T09:47:46.191Z,18.52
2022-09-20T09:50:48.871Z,18.88
2022-09-20T09:53:55.199Z,18.55
2022-09-20T09:57:12.069Z,18.65
2022-09-20T10:00:21.962Z,18.18
2022-09-20T10:03:39.446Z,18.00
2022-09-20T10:06:52.189Z,17.27
2022-09-20T10:10:09.065Z,17.77
2022-09-20T10:13:20.931Z,18.54
2022-09-20T10:16:35.910Z,19.30
2022-09-20T10:19:49.757Z,19.78
2022-09-20T10:23:34.443Z,19.15
2022-09-20T10:26:39.991Z,19.19
2022-09-20T10:29:54.727Z,19.51
2022-09-20T10:33:07.351Z,18.55
2022-09-20T10:36:25.295Z,18.18
2022-09-20T10:39:32.802Z,19.44
2022-09-20T10:43:04.288Z,19.82
2022-09-20T10:46:31.795Z,20.58
2022-09-20T10:49:37.639Z,20.13
2022-09-20T10:53:06.541Z,20.38
2022-09-20T10:56:24.017Z,19.19
2022-09-20T10:59:38.708Z,18.76
2022-09-20T11:02:53.855Z,17.73
2022-09-20T11:06:09.288Z,16.93
2022-09-20T11:09:18.759Z,16.97
2022-09-20T11:12:26.924Z,16.25
2022-09-20T11:15:36.392Z,16.06
2022-09-20T11:18:44.975Z,15.98
2022-09-20T11:21:54.387Z,15.99
2022-09-20T11:25:04.016Z,15.88
2022-09-20T11:28:13.785Z,15.91
2022-09-20T11:31:24.855Z,15.93
2022-09-20T11:34:31.127Z,15.89
2022-09-20T11:37:37.391Z,15.59
2022-09-20T11:40:46.402Z,15.71
2022-09-20T11:43:50.679Z,15.58
2022-09-20T11:47:01.237Z,15.55
2022-09-20T11:50:32.987Z,15.45
2022-09-20T11:53:48.697Z,15.29
2022-09-20T11:56:53.005Z,15.32
2022-09-20T12:00:01.163Z,15.44
2022-09-20T12:03:09.756Z,15.51
2022-09-20T12:06:27.478Z,15.38
2022-09-20T12:09:32.841Z,15.47
2022-09-20T12:12:41.651Z,15.50
2022-09-20T12:15:44.394Z,15.49
2022-09-20T12:19:05.404Z,15.75
2022-09-20T12:22:29.367Z,15.72
2022-09-20T12:25:40.614Z,15.76
2022-09-20T12:28:45.321Z,15.71
2022-09-20T12:31:49.137Z,15.50
2022-09-20T12:34:53.539Z,15.58
2022-09-20T12:37:56.585Z,15.50
2022-09-20T12:41:01.574Z,15.27
2022-09-20T12:44:24.196Z,14.29
2022-09-20T12:47:30.132Z,13.80
2022-09-20T12:50:51.664Z,13.10
2022-09-20T12:54:07.564Z,13.00
2022-09-20T12:57:19.135Z,12.60
2022-09-20T13:00:34.477Z,12.73
2022-09-20T13:03:39.459Z,12.95
2022-09-20T13:06:45.128Z,12.80
2022-09-20T13:09:49.281Z,12.98
2022-09-20T13:12:57.085Z,13.29
2022-09-20T13:16:01.290Z,13.43
2022-09-20T13:19:08.413Z,13.37
2022-09-20T13:22:17.336Z,13.72
2022-09-20T13:25:22.029Z,13.79
2022-09-20T13:28:35.130Z,14.00
2022-09-20T13:31:38.184Z,13.93
2022-09-20T13:34:41.042Z,14.04
2022-09-20T13:37:54.112Z,14.23
2022-09-20T13:41:04.594Z,14.34
2022-09-20T13:44:07.343Z,14.58
2022-09-20T13:47:27.362Z,14.36
2022-09-20T13:50:34.715Z,14.33
2022-09-20T13:53:42.336Z,14.30
2022-09-20T13:56:45.571Z,14.50
2022-09-20T13:59:49.775Z,14.76
2022-09-20T14:02:54.702Z,14.79
2022-09-20T14:06:00.545Z,15.03
2022-09-20T14:09:11.069Z,15.20
2022-09-20T14:12:14.862Z,15.03
2022-09-20T14:15:17.832Z,15.24
2022-09-20T14:18:22.404Z,15.05
2022-09-20T14:21:27.241Z,14.69
2022-09-20T14:24:35.287Z,14.69
2022-09-20T14:27:38.072Z,14.72
2022-09-20T14:30:40.891Z,14.77
2022-09-20T14:33:49.807Z,14.50
2022-09-20T14:37:06.470Z,14.49
2022-09-20T14:40:22.786Z,14.55
2022-09-20T14:43:31.347Z,14.71
2022-09-20T14:46:36.038Z,14.45
2022-09-20T14:49:41.907Z,14.35
2022-09-20T14:52:45.315Z,14.45
2022-09-20T14:56:01.632Z,14.39
2022-09-20T14:59:26.108Z,14.32
2022-09-20T15:02:28.846Z,14.38
2022-09-20T15:05:31.549Z,14.54
2022-09-20T15:08:35.594Z,14.74
2022-09-20T15:11:40.689Z,14.89
2022-09-20T15:14:44.975Z,15.00
2022-09-20T15:17:48.745Z,15.15
2022-09-20T15:20:52.214Z,15.24
2022-09-20T15:23:54.982Z,15.25
2022-09-20T15:26:58.885Z,15.27
2022-09-20T15:30:01.614Z,15.11
2022-09-20T15:33:04.520Z,15.01
2022-09-20T15:36:08.051Z,14.84
2022-09-20T15:39:10.597Z,14.76
2022-09-20T15:42:14.958Z,14.81
2022-09-20T15:45:18.264Z,14.90
2022-09-20T15:48:22.388Z,14.94
2022-09-20T15:51:25.111Z,15.07
2022-09-20T15:54:27.726Z,15.10
2022-09-20T15:57:32.568Z,15.19
2022-09-20T16:00:35.731Z,15.20
2022-09-20T16:03:38.696Z,15.13
2022-09-20T16:06:44.061Z,15.13
2022-09-20T16:09:46.634Z,15.03
2022-09-20T16:12:50.720Z,15.01
2022-09-20T16:15:57.333Z,14.95
2022-09-20T16:19:19.639Z,14.85
2022-09-20T16:22:22.321Z,14.73
2022-09-20T16:25:25.198Z,14.71
2022-09-20T16:28:29.161Z,14.68
2022-09-20T16:31:34.753Z,14.68
2022-09-20T16:34:38.553Z,14.66
2022-09-20T16:37:41.173Z,14.57
2022-09-20T16:40:44.014Z,14.45
2022-09-20T16:43:52.144Z,14.42
2022-09-20T16:46:54.737Z,14.38
2022-09-20T16:49:57.434Z,14.34
2022-09-20T16:53:00.148Z,14.29
2022-09-20T16:56:07.621Z,14.22
2022-09-20T16:59:12.549Z,14.11
2022-09-20T17:02:17.333Z,14.03
2022-09-20T17:05:19.898Z,13.83
2022-09-20T17:08:23.315Z,13.81
2022-09-20T17:11:27.791Z,13.78
2022-09-20T17:14:31.839Z,13.75
2022-09-20T17:17:34.681Z,13.73
2022-09-20T17:20:39.099Z,13.68
2022-09-20T17:23:45.557Z,13.64
2022-09-20T17:26:52.298Z,13.62
2022-09-20T17:29:56.446Z,13.48
2022-09-20T17:32:59.284Z,13.41
2022-09-20T17:36:03.124Z,13.35
2022-09-20T17:39:06.843Z,13.32
2022-09-20T17:42:09.383Z,13.26
2022-09-20T17:45:13.660Z,13.07
2022-09-20T17:48:16.235Z,12.95
2022-09-20T17:51:20.816Z,12.96
2022-09-20T17:54:24.677Z,12.96
2022-09-20T17:57:27.370Z,12.85
2022-09-20T18:00:31.340Z,12.76
2022-09-20T18:03:38.163Z,12.68
2022-09-20T18:06:43.253Z,12.63
2022-09-20T18:09:45.807Z,12.55
2022-09-20T18:12:48.505Z,12.51
2022-09-20T18:15:52.453Z,12.41
2022-09-20T18:18:55.531Z,12.35
2022-09-20T18:21:58.101Z,12.24
2022-09-20T18:25:00.691Z,12.18
2022-09-20T18:28:03.260Z,12.15
2022-09-20T18:31:08.711Z,12.00
2022-09-20T18:34:18.130Z,11.91
2022-09-20T18:37:20.843Z,11.89
2022-09-20T18:40:23.592Z,11.91
2022-09-20T18:43:26.866Z,11.82
2022-09-20T18:46:31.645Z,11.75
2022-09-20T18:49:34.634Z,11.72
2022-09-20T18:52:38.742Z,11.72
2022-09-20T18:55:43.989Z,11.69
2022-09-20T18:58:47.392Z,11.68
2022-09-20T19:02:24.722Z,11.62
2022-09-20T19:05:35.229Z,11.57
2022-09-20T19:08:46.567Z,11.50
2022-09-20T19:12:00.878Z,11.48
2022-09-20T19:15:21.404Z,11.43
2022-09-20T19:18:38.201Z,11.41
2022-09-20T19:21:47.483Z,11.92
2022-09-20T19:25:04.971Z,12.05
2022-09-20T19:28:10.855Z,12.14
2022-09-20T19:31:21.118Z,12.34
2022-09-20T19:34:27.715Z,12.50
2022-09-20T19:37:38.030Z,12.51
2022-09-20T19:40:50.201Z,12.61
2022-09-20T19:44:18.226Z,12.55
2022-09-20T19:47:30.778Z,12.55
2022-09-20T19:50:41.143Z,12.60
2022-09-20T19:53:44.369Z,12.37
2022-09-20T19:56:55.158Z,12.29
2022-09-20T19:59:58.344Z,12.40
2022-09-20T20:03:01.590Z,12.46
2022-09-20T20:06:16.222Z,12.47
2022-09-20T20:09:28.731Z,12.39
2022-09-20T20:12:36.825Z,12.25
2022-09-20T20:15:46.255Z,12.31
2022-09-20T20:19:05.907Z,12.23
2022-09-20T20:22:23.825Z,12.25
2022-09-20T20:25:41.491Z,12.24
2022-09-20T20:28:44.239Z,12.26
2022-09-20T20:31:47.003Z,12.20
2022-09-20T20:34:50.430Z,12.20
2022-09-20T20:37:54.565Z,12.02
2022-09-20T20:41:04.429Z,11.92
2022-09-20T20:44:08.396Z,12.05
2022-09-20T20:47:11.455Z,12.04
2022-09-20T20:50:14.433Z,11.98
2022-09-20T20:53:18.644Z,11.96
2022-09-20T20:56:22.871Z,12.02
2022-09-20T20:59:25.597Z,11.87
2022-09-20T21:02:29.263Z,11.81
2022-09-20T21:05:32.401Z,11.78
2022-09-20T21:08:38.228Z,11.75
2022-09-20T21:11:43.219Z,11.77
2022-09-20T21:14:45.908Z,11.77
2022-09-20T21:17:51.980Z,11.80
2022-09-20T21:20:54.654Z,11.73
2022-09-20T21:24:00.444Z,11.76
2022-09-20T21:27:05.063Z,11.66
2022-09-20T21:30:09.412Z,11.54
2022-09-20T21:33:11.973Z,11.46
2022-09-20T21:36:16.798Z,11.53
2022-09-20T21:39:20.861Z,11.56
2022-09-20T21:42:25.424Z,11.51
2022-09-20T21:45:29.709Z,11.55
2022-09-20T21:48:32.314Z,11.64
2022-09-20T21:51:35.945Z,11.60
2022-09-20T21:54:39.948Z,11.57
2022-09-20T21:57:42.505Z,11.59
2022-09-20T22:00:56.397Z,11.51
2022-09-20T22:04:01.028Z,11.50
2022-09-20T22:07:04.619Z,11.42
2022-09-20T22:10:09.779Z,11.40
2022-09-20T22:13:12.343Z,11.30
2022-09-20T22:16:16.856Z,11.26
2022-09-20T22:19:20.428Z,11.30
2022-09-20T22:22:23.025Z,11.27
2022-09-20T22:25:27.072Z,11.23
2022-09-20T22:28:29.672Z,11.14
2022-09-20T22:31:33.943Z,11.13
2022-09-20T22:34:36.675Z,11.20
2022-09-20T22:37:39.424Z,11.31
2022-09-20T22:40:53.373Z,11.33
2022-09-20T22:43:56.520Z,11.30
2022-09-20T22:46:59.237Z,11.33
2022-09-20T22:50:01.977Z,11.37
2022-09-20T22:53:04.572Z,11.40
2022-09-20T22:56:11.156Z,11.35
2022-09-20T22:59:15.239Z,11.25
2022-09-20T23:02:18.061Z,11.26
2022-09-20T23:05:20.781Z,11.20
2022-09-20T23:08:25.071Z,11.11
2022-09-20T23:11:29.731Z,11.09
2022-09-20T23:14:32.495Z,11.08
2022-09-20T23:17:35.218Z,11.06
2022-09-20T23:20:38.282Z,11.09
2022-09-20T23:23:43.184Z,11.01
2022-09-20T23:26:47.740Z,11.06
2022-09-20T23:29:50.317Z,11.08
2022-09-20T23:32:54.924Z,11.01
2022-09-20T23:35:58.317Z,10.96
2022-09-20T23:39:01.285Z,10.90
2022-09-20T23:42:05.875Z,10.87
2022-09-20T23:45:10.134Z,10.88
2022-09-20T23:48:12.893Z,10.90
2022-09-20T23:51:17.589Z,10.76
2022-09-20T23:54:20.139Z,10.67
2022-09-20T23:57:24.181Z,10.61
